Time;durP1;ratioP1;P1;durP2;ratioP2;P2;SDS_P1;SDS_P2;PMS_P1;PMS_P2;Temp;Humidity;BMP_temperature;BMP_pressure;BME280_temperature;BME280_humidity;BME280_pressure;Samples;Min_cycle;Max_cycle;Signal;HPM_P1;HPM_P2
2021/06/03 00:02:25;;;;;;;6.30;2.53;;;16.20;67.30;;;;;;5073753;28;20028;-66
2021/06/03 00:04:51;;;;;;;5.68;2.75;;;16.20;67.20;;;;;;5073245;28;20066;-65
2021/06/03 00:07:17;;;;;;;3.63;2.97;;;16.20;67.70;;;;;;5073734;28;20024;-64
2021/06/03 00:09:42;;;;;;;5.32;2.80;;;16.20;67.60;;;;;;5072881;28;20021;-64
2021/06/03 00:12:09;;;;;;;3.85;2.50;;;16.20;67.20;;;;;;5073794;28;20157;-64
2021/06/03 00:14:36;;;;;;;4.75;2.75;;;16.20;67.10;;;;;;5073231;28;20016;-64
2021/06/03 00:17:02;;;;;;;3.38;2.50;;;16.20;66.70;;;;;;5073618;28;20021;-67
2021/06/03 00:19:27;;;;;;;5.45;2.95;;;16.20;66.80;;;;;;5073580;28;20036;-65
2021/06/03 00:21:54;;;;;;;2.70;2.50;;;16.20;66.70;;;;;;5073808;28;20100;-64
2021/06/03 00:24:21;;;;;;;4.53;3.15;;;16.20;66.70;;;;;;5072594;28;20028;-64
2021/06/03 00:26:47;;;;;;;4.18;2.60;;;16.10;66.60;;;;;;5073571;28;20415;-64
2021/06/03 00:29:14;;;;;;;4.82;2.75;;;16.10;66.30;;;;;;5073611;28;20028;-64
2021/06/03 00:31:40;;;;;;;3.60;2.60;;;16.10;66.50;;;;;;5073613;28;20032;-64
2021/06/03 00:34:06;;;;;;;5.03;2.63;;;16.10;66.20;;;;;;5073634;28;20036;-64
2021/06/03 00:36:31;;;;;;;2.50;2.30;;;16.10;66.30;;;;;;5073638;28;20021;-64
2021/06/03 00:38:57;;;;;;;4.88;2.80;;;16.10;66.30;;;;;;5076845;28;21844;-64
2021/06/03 00:41:23;;;;;;;4.63;2.70;;;16.10;66.30;;;;;;5076290;28;20032;-64
2021/06/03 00:43:49;;;;;;;3.90;2.70;;;16.10;66.40;;;;;;5076567;28;20036;-65
2021/06/03 00:46:15;;;;;;;3.90;2.72;;;16.10;66.50;;;;;;5076088;28;20389;-64
2021/06/03 00:48:41;;;;;;;4.93;3.22;;;16.00;66.40;;;;;;5077330;28;20040;-64
2021/06/03 00:51:08;;;;;;;5.32;2.90;;;16.00;66.20;;;;;;5076610;28;20119;-64
2021/06/03 00:53:36;;;;;;;3.17;2.65;;;16.00;66.30;;;;;;5076131;28;20036;-64
2021/06/03 00:56:04;;;;;;;6.47;2.83;;;16.00;66.00;;;;;;5076915;28;20028;-64
2021/06/03 00:58:29;;;;;;;3.38;2.78;;;16.00;66.20;;;;;;5077353;28;20028;-64
2021/06/03 01:00:56;;;;;;;2.88;2.50;;;15.90;66.30;;;;;;5076586;28;20031;-64
2021/06/03 01:03:23;;;;;;;6.28;2.70;;;15.90;66.50;;;;;;5076858;28;20104;-64
2021/06/03 01:06:02;;;;;;;4.57;2.70;;;16.00;66.70;;;;;;5075957;28;20021;-64
2021/06/03 01:08:46;;;;;;;4.95;2.60;;;15.90;66.40;;;;;;5075619;28;20511;-64
2021/06/03 01:11:48;;;;;;;4.22;2.50;;;15.90;66.60;;;;;;5056989;28;20068;-64
2021/06/03 01:14:21;;;;;;;3.47;2.47;;;15.90;66.80;;;;;;5066232;28;20454;-64
2021/06/03 01:16:49;;;;;;;3.90;2.72;;;15.90;66.80;;;;;;5077093;28;20059;-64
2021/06/03 01:19:27;;;;;;;5.38;3.20;;;15.80;66.80;;;;;;5076895;28;20081;-64
2021/06/03 01:22:16;;;;;;;3.35;2.70;;;15.80;66.60;;;;;;5076777;28;20021;-64
2021/06/03 01:24:58;;;;;;;5.40;3.03;;;15.80;66.90;;;;;;5075222;28;20025;-64
2021/06/03 01:27:28;;;;;;;6.03;2.63;;;15.80;67.00;;;;;;5076655;28;20461;-64
2021/06/03 01:30:21;;;;;;;3.90;2.85;;;15.80;67.20;;;;;;5076890;28;20012;-64
2021/06/03 01:32:52;;;;;;;7.35;2.65;;;15.80;67.20;;;;;;5069817;28;20067;-64
2021/06/03 01:35:24;;;;;;;4.82;2.70;;;15.80;67.50;;;;;;5075710;28;20044;-64
2021/06/03 01:37:53;;;;;;;3.55;2.78;;;15.80;67.00;;;;;;5056287;28;20028;-64
2021/06/03 01:40:20;;;;;;;4.05;2.50;;;15.80;67.10;;;;;;5069536;28;20041;-64
2021/06/03 01:42:47;;;;;;;5.85;2.80;;;15.70;67.10;;;;;;5075837;28;20035;-64
2021/06/03 01:45:15;;;;;;;3.17;2.63;;;15.70;67.30;;;;;;5068082;28;20036;-65
2021/06/03 01:47:41;;;;;;;2.95;2.45;;;15.70;67.40;;;;;;5056062;28;20123;-64
2021/06/03 01:50:07;;;;;;;4.60;2.53;;;15.70;67.20;;;;;;5055391;28;20029;-65
2021/06/03 01:52:34;;;;;;;3.22;2.63;;;15.70;67.40;;;;;;5063269;28;20060;-64
2021/06/03 01:55:01;;;;;;;3.47;2.50;;;15.70;67.60;;;;;;5075112;28;20535;-64
2021/06/03 01:57:27;;;;;;;3.50;2.80;;;15.70;67.50;;;;;;5075790;28;20025;-64
2021/06/03 01:59:53;;;;;;;4.85;2.67;;;15.70;67.50;;;;;;5076212;28;20028;-64
2021/06/03 02:02:19;;;;;;;3.88;2.50;;;15.70;67.40;;;;;;5074302;28;20027;-64
2021/06/03 02:04:46;;;;;;;5.32;2.90;;;15.70;67.50;;;;;;5075366;28;20039;-64
2021/06/03 02:07:12;;;;;;;3.30;2.67;;;15.70;67.80;;;;;;5075806;28;20024;-64
2021/06/03 02:09:38;;;;;;;5.85;2.95;;;15.60;67.50;;;;;;5075064;28;20036;-64
2021/06/03 02:12:08;;;;;;;3.38;2.50;;;15.60;67.50;;;;;;5066019;28;20032;-64
2021/06/03 02:14:38;;;;;;;2.97;2.47;;;15.60;67.70;;;;;;5075693;28;20024;-64
2021/06/03 02:17:18;;;;;;;3.28;2.75;;;15.70;67.60;;;;;;5075815;28;20020;-64
2021/06/03 02:19:54;;;;;;;4.30;2.55;;;15.60;67.70;;;;;;5075568;28;20040;-64
2021/06/03 02:22:24;;;;;;;3.25;2.80;;;15.60;67.60;;;;;;5075164;28;20017;-65
2021/06/03 02:24:50;;;;;;;4.75;2.72;;;15.60;67.40;;;;;;5075170;28;20420;-64
2021/06/03 02:27:19;;;;;;;2.90;2.60;;;15.60;67.20;;;;;;5075560;28;20025;-64
2021/06/03 02:29:45;;;;;;;3.30;2.67;;;15.60;67.10;;;;;;5075421;28;20020;-65
2021/06/03 02:32:12;;;;;;;4.30;2.78;;;15.60;67.10;;;;;;5075019;28;20032;-64
2021/06/03 02:34:39;;;;;;;3.47;2.60;;;15.60;67.00;;;;;;5075008;28;20399;-64
2021/06/03 02:37:13;;;;;;;4.78;2.85;;;15.70;68.00;;;;;;5075235;28;20016;-65
2021/06/03 02:39:40;;;;;;;4.07;2.67;;;15.70;67.20;;;;;;5074596;28;20089;-64
2021/06/03 02:42:08;;;;;;;3.00;2.63;;;15.70;67.10;;;;;;5074928;28;20036;-65
2021/06/03 02:44:35;;;;;;;3.10;2.45;;;15.70;67.20;;;;;;5056133;28;20493;-65
2021/06/03 02:47:02;;;;;;;2.92;2.65;;;15.70;66.70;;;;;;5054855;28;20045;-64
2021/06/03 02:49:27;;;;;;;3.03;2.35;;;15.70;66.40;;;;;;5054956;28;20076;-64
2021/06/03 02:51:53;;;;;;;2.90;2.60;;;15.80;66.80;;;;;;5068776;28;20060;-64
2021/06/03 02:54:19;;;;;;;3.35;2.33;;;15.70;67.00;;;;;;5072207;28;20025;-65
2021/06/03 02:56:44;;;;;;;2.60;2.40;;;15.80;66.50;;;;;;5074432;28;20028;-64
2021/06/03 02:59:10;;;;;;;4.10;2.50;;;15.80;66.20;;;;;;5074429;28;20056;-64
2021/06/03 03:01:36;;;;;;;4.40;2.92;;;15.80;66.30;;;;;;5073457;28;20028;-65
2021/06/03 03:04:01;;;;;;;3.45;2.50;;;15.80;66.00;;;;;;5074629;28;20029;-65
2021/06/03 03:06:27;;;;;;;4.82;2.50;;;15.80;66.10;;;;;;5074802;28;20032;-64
2021/06/03 03:08:53;;;;;;;3.30;2.70;;;15.90;66.10;;;;;;5073152;28;20461;-64
2021/06/03 03:11:18;;;;;;;3.13;2.40;;;15.90;66.00;;;;;;5073448;28;20028;-65
2021/06/03 03:13:44;;;;;;;3.30;2.25;;;15.90;66.00;;;;;;5071575;28;20025;-65
2021/06/03 03:16:10;;;;;;;4.20;2.60;;;15.90;66.00;;;;;;5071200;28;20020;-65
2021/06/03 03:18:36;;;;;;;3.33;2.45;;;15.90;65.80;;;;;;5074295;28;20024;-65
2021/06/03 03:21:04;;;;;;;3.75;2.22;;;15.90;65.90;;;;;;5073283;28;20496;-65
2021/06/03 03:23:29;;;;;;;3.30;2.72;;;15.90;65.50;;;;;;5074187;28;20039;-64
2021/06/03 03:25:55;;;;;;;4.20;2.50;;;16.00;65.50;;;;;;5073756;28;20461;-64
2021/06/03 03:28:21;;;;;;;2.95;2.65;;;16.00;65.30;;;;;;5074158;28;20033;-65
2021/06/03 03:30:47;;;;;;;4.07;2.97;;;16.00;65.10;;;;;;5073921;28;20548;-65
2021/06/03 03:33:14;;;;;;;3.80;2.58;;;16.00;65.20;;;;;;5073365;28;20425;-65
2021/06/03 03:35:42;;;;;;;4.60;2.92;;;16.10;65.00;;;;;;5073908;28;20036;-65
2021/06/03 03:38:07;;;;;;;3.30;2.50;;;16.10;65.20;;;;;;5073742;28;20028;-65
2021/06/03 03:40:33;;;;;;;3.85;2.70;;;16.10;65.40;;;;;;5073138;28;20029;-64
2021/06/03 03:42:59;;;;;;;4.82;3.25;;;16.10;65.20;;;;;;5074109;28;20373;-64
2021/06/03 03:45:26;;;;;;;5.43;2.80;;;16.10;64.80;;;;;;5074039;28;20103;-64
2021/06/03 03:47:52;;;;;;;6.40;2.80;;;16.20;65.00;;;;;;5073291;28;20040;-64
2021/06/03 03:50:18;;;;;;;4.00;2.40;;;16.20;65.10;;;;;;5073697;28;20100;-65
2021/06/03 03:52:45;;;;;;;5.47;2.78;;;16.20;64.60;;;;;;5073857;28;20025;-65
2021/06/03 03:55:13;;;;;;;4.07;2.60;;;16.20;64.70;;;;;;5072970;28;20090;-65
2021/06/03 03:57:40;;;;;;;2.65;2.45;;;16.20;64.60;;;;;;5072727;28;20016;-65
2021/06/03 04:00:09;;;;;;;4.60;2.45;;;16.10;64.80;;;;;;5073687;28;20504;-65
2021/06/03 04:02:34;;;;;;;3.65;2.60;;;16.10;64.40;;;;;;5073955;28;20031;-64
2021/06/03 04:05:00;;;;;;;5.10;2.75;;;16.20;64.80;;;;;;5073687;28;20024;-64
2021/06/03 04:07:26;;;;;;;3.10;2.47;;;16.20;64.20;;;;;;5072079;28;20078;-65
2021/06/03 04:09:52;;;;;;;4.90;2.63;;;16.20;63.90;;;;;;5073124;28;20082;-65
2021/06/03 04:12:17;;;;;;;3.55;2.78;;;16.30;63.90;;;;;;5071510;28;20423;-65
2021/06/03 04:14:43;;;;;;;3.28;2.65;;;16.30;64.10;;;;;;5073552;28;20056;-65
2021/06/03 04:17:09;;;;;;;3.63;2.47;;;16.40;64.40;;;;;;5073016;28;20028;-65
2021/06/03 04:19:35;;;;;;;4.72;2.75;;;16.50;64.10;;;;;;5072512;28;20016;-64
2021/06/03 04:22:02;;;;;;;4.25;2.80;;;16.50;63.90;;;;;;5073471;28;20032;-64
2021/06/03 04:24:27;;;;;;;4.03;2.45;;;16.60;64.00;;;;;;5072817;28;20028;-65
2021/06/03 04:26:53;;;;;;;2.70;2.50;;;16.70;64.30;;;;;;5073523;28;20104;-65
2021/06/03 04:29:19;;;;;;;3.90;2.53;;;16.80;63.80;;;;;;5073347;28;20036;-64
2021/06/03 04:31:44;;;;;;;6.53;3.50;;;16.80;63.60;;;;;;5073602;28;20032;-64
2021/06/03 04:34:10;;;;;;;3.75;2.58;;;16.90;63.40;;;;;;5072275;28;20492;-64
2021/06/03 04:36:37;;;;;;;4.15;2.78;;;17.00;63.00;;;;;;5073574;28;20060;-64
2021/06/03 04:39:03;;;;;;;3.03;2.60;;;17.00;62.90;;;;;;5072374;28;20095;-65
2021/06/03 04:41:29;;;;;;;3.60;2.38;;;17.10;62.60;;;;;;5073400;28;20028;-65
2021/06/03 04:43:54;;;;;;;2.72;2.53;;;17.20;62.20;;;;;;5073425;28;20020;-65
2021/06/03 04:46:20;;;;;;;2.95;2.42;;;17.30;62.10;;;;;;5073132;28;20103;-65
2021/06/03 04:48:46;;;;;;;3.55;3.25;;;17.40;61.90;;;;;;5073202;28;20036;-65
2021/06/03 04:51:11;;;;;;;6.40;2.30;;;17.50;61.50;;;;;;5072546;28;20403;-65
2021/06/03 04:53:37;;;;;;;2.90;2.50;;;17.70;61.50;;;;;;5072010;28;20120;-65
2021/06/03 04:56:03;;;;;;;3.00;2.70;;;17.90;61.20;;;;;;5073045;28;20039;-65
2021/06/03 04:58:29;;;;;;;3.67;2.55;;;18.10;61.20;;;;;;5073013;28;20029;-65
2021/06/03 05:00:55;;;;;;;5.18;2.63;;;18.30;60.90;;;;;;5073056;28;20074;-65
2021/06/03 05:03:21;;;;;;;4.05;2.63;;;18.50;60.20;;;;;;5071808;28;20105;-65
2021/06/03 05:05:47;;;;;;;2.60;2.40;;;18.70;60.00;;;;;;5072308;28;20040;-65
2021/06/03 05:08:12;;;;;;;3.53;2.30;;;19.00;59.70;;;;;;5072075;28;20111;-65
2021/06/03 05:10:39;;;;;;;2.92;2.40;;;19.10;58.90;;;;;;5062533;28;20045;-65
2021/06/03 05:13:06;;;;;;;4.50;2.53;;;19.40;58.30;;;;;;5066979;28;20083;-65
2021/06/03 05:15:32;;;;;;;4.72;2.50;;;19.50;58.20;;;;;;5069292;28;20017;-65
2021/06/03 05:17:58;;;;;;;2.70;2.40;;;19.60;57.40;;;;;;5068438;28;20021;-64
2021/06/03 05:20:26;;;;;;;4.03;2.53;;;19.70;57.00;;;;;;5071047;28;20070;-64
2021/06/03 05:22:53;;;;;;;3.08;2.78;;;19.70;57.00;;;;;;5073182;28;20135;-64
2021/06/03 05:25:25;;;;;;;4.95;2.78;;;19.70;56.90;;;;;;5071421;28;20021;-64
2021/06/03 05:27:51;;;;;;;2.42;2.22;;;19.70;56.80;;;;;;5069178;28;20033;-65
2021/06/03 05:30:18;;;;;;;4.72;2.72;;;19.60;57.00;;;;;;5067673;28;20044;-65
2021/06/03 05:32:44;;;;;;;3.92;2.50;;;19.50;57.20;;;;;;5066696;28;20484;-65
2021/06/03 05:35:13;;;;;;;3.13;2.60;;;19.40;57.40;;;;;;5069050;28;20028;-65
2021/06/03 05:37:40;;;;;;;3.70;2.30;;;19.30;57.60;;;;;;5067073;28;20029;-65
2021/06/03 05:40:07;;;;;;;3.45;2.40;;;19.30;58.10;;;;;;5064845;28;20024;-64
2021/06/03 05:42:33;;;;;;;3.05;2.17;;;19.30;58.80;;;;;;5062131;28;20036;-56
2021/06/03 05:44:59;;;;;;;5.07;2.50;;;19.20;57.80;;;;;;5062486;28;20047;-54
2021/06/03 05:47:24;;;;;;;3.70;2.58;;;19.10;57.50;;;;;;5060198;28;20056;-55
2021/06/03 05:49:50;;;;;;;2.83;2.50;;;19.10;58.30;;;;;;5067725;28;20147;-56
2021/06/03 05:52:16;;;;;;;5.35;2.45;;;19.00;58.20;;;;;;5067350;28;20028;-54
2021/06/03 05:54:42;;;;;;;3.05;2.47;;;19.00;58.10;;;;;;5058329;28;20035;-52
2021/06/03 05:57:08;;;;;;;2.78;2.47;;;19.00;58.10;;;;;;5065007;28;20365;-56
2021/06/03 05:59:34;;;;;;;4.35;2.63;;;19.00;58.70;;;;;;5064797;28;20024;-56
2021/06/03 06:02:03;;;;;;;2.90;2.55;;;19.00;58.90;;;;;;5062530;28;20024;-57
2021/06/03 06:06:54;;;;;;;2.83;2.53;;;19.10;58.80;;;;;;5064837;28;20401;-57
2021/06/03 06:09:21;;;;;;;5.82;2.85;;;19.10;58.60;;;;;;5064166;28;20040;-56
2021/06/03 06:11:47;;;;;;;3.70;2.30;;;19.10;58.90;;;;;;5059320;28;20051;-63
2021/06/03 06:14:13;;;;;;;2.88;2.28;;;19.10;58.90;;;;;;5063366;28;20024;-63
2021/06/03 06:16:39;;;;;;;3.13;2.30;;;19.10;58.40;;;;;;5058481;28;20032;-63
2021/06/03 06:19:06;;;;;;;5.90;2.50;;;19.10;58.00;;;;;;5056644;28;20025;-63
2021/06/03 06:21:32;;;;;;;2.53;2.30;;;19.10;58.30;;;;;;5057851;28;20017;-65
2021/06/03 06:23:58;;;;;;;2.90;2.40;;;19.10;58.00;;;;;;5063715;28;20051;-63
2021/06/03 06:26:24;;;;;;;2.45;2.22;;;19.10;58.10;;;;;;5064304;28;20718;-64
2021/06/03 06:28:52;;;;;;;4.25;2.17;;;19.10;58.20;;;;;;5067411;28;20492;-64
2021/06/03 06:31:18;;;;;;;2.35;2.05;;;19.10;58.30;;;;;;5064441;28;21184;-61
2021/06/03 06:33:46;;;;;;;5.88;2.15;;;19.00;57.40;;;;;;5064729;28;20028;-61
2021/06/03 06:36:12;;;;;;;2.42;2.22;;;19.00;56.50;;;;;;5060720;28;20132;-61
2021/06/03 06:38:39;;;;;;;2.58;2.33;;;19.00;55.90;;;;;;5061751;28;20036;-66
2021/06/03 06:41:06;;;;;;;3.00;2.38;;;19.00;55.90;;;;;;5060732;28;20020;-67
2021/06/03 06:43:33;;;;;;;2.80;2.13;;;19.00;56.60;;;;;;5060976;28;20029;-66
2021/06/03 06:46:00;;;;;;;3.75;2.33;;;19.00;56.60;;;;;;5065495;28;20024;-62
2021/06/03 06:48:25;;;;;;;4.13;2.30;;;19.00;56.50;;;;;;5059247;28;20036;-63
2021/06/03 06:50:52;;;;;;;4.47;2.70;;;19.00;56.40;;;;;;5066336;28;20035;-61
2021/06/03 06:53:18;;;;;;;3.42;2.53;;;19.00;56.30;;;;;;5061021;28;20369;-63
2021/06/03 06:55:45;;;;;;;2.35;2.10;;;19.00;56.10;;;;;;5055398;28;20126;-62
2021/06/03 06:58:11;;;;;;;3.38;2.17;;;19.00;56.30;;;;;;5060995;28;20024;-65
2021/06/03 07:00:38;;;;;;;2.65;2.42;;;19.00;55.70;;;;;;5054132;28;20040;-64
2021/06/03 07:03:07;;;;;;;3.35;2.20;;;19.00;55.40;;;;;;5051498;28;20028;-65
2021/06/03 07:05:33;;;;;;;3.20;2.25;;;19.00;55.20;;;;;;5055605;28;20174;-65
2021/06/03 07:07:59;;;;;;;2.33;1.98;;;19.10;55.10;;;;;;5058908;28;20483;-60
2021/06/03 07:10:25;;;;;;;3.97;2.25;;;19.10;54.90;;;;;;5059974;28;20140;-60
2021/06/03 07:12:51;;;;;;;2.53;2.20;;;19.10;55.20;;;;;;5055982;28;20042;-63
2021/06/03 07:15:18;;;;;;;3.25;2.33;;;19.20;54.50;;;;;;5051904;28;20091;-65
2021/06/03 07:17:44;;;;;;;3.28;1.90;;;19.20;54.30;;;;;;5051365;28;20063;-63
2021/06/03 07:20:13;;;;;;;3.80;2.10;;;19.20;54.00;;;;;;5052817;28;20032;-63
2021/06/03 07:22:45;;;;;;;4.35;2.50;;;19.20;54.30;;;;;;5055955;28;20036;-61
2021/06/03 07:25:12;;;;;;;4.78;2.00;;;19.30;54.30;;;;;;5054630;28;20028;-62
2021/06/03 07:27:39;;;;;;;3.15;2.47;;;19.30;54.10;;;;;;5059273;28;20036;-60
2021/06/03 07:30:07;;;;;;;2.55;2.03;;;19.30;54.00;;;;;;5054113;28;20028;-63
2021/06/03 07:32:34;;;;;;;2.75;2.03;;;19.30;53.90;;;;;;5052046;28;20035;-63
2021/06/03 07:35:00;;;;;;;3.80;2.40;;;19.30;53.60;;;;;;5037979;28;20040;-65
2021/06/03 07:37:28;;;;;;;2.88;1.88;;;19.40;53.70;;;;;;5052912;28;20074;-63
2021/06/03 07:39:55;;;;;;;3.03;2.10;;;19.40;54.30;;;;;;5052881;28;20496;-65
2021/06/03 07:42:21;;;;;;;3.75;2.40;;;19.40;54.00;;;;;;5055428;28;20031;-66
2021/06/03 07:44:47;;;;;;;4.07;2.20;;;19.50;53.60;;;;;;5054238;28;20404;-65
2021/06/03 07:47:13;;;;;;;2.45;1.95;;;19.50;53.80;;;;;;5053959;28;20059;-65
2021/06/03 07:49:39;;;;;;;2.85;2.30;;;19.50;53.70;;;;;;5053132;28;20032;-66
2021/06/03 07:52:05;;;;;;;2.10;2.00;;;19.50;53.60;;;;;;5050849;28;20033;-66
2021/06/03 07:54:33;;;;;;;2.40;2.20;;;19.60;53.40;;;;;;5049539;28;20033;-64
2021/06/03 07:56:58;;;;;;;2.17;1.98;;;19.60;53.50;;;;;;5063383;28;20042;-64
2021/06/03 07:59:24;;;;;;;2.40;2.20;;;19.70;53.50;;;;;;5049689;28;20032;-62
2021/06/03 08:01:51;;;;;;;2.35;1.60;;;19.70;54.00;;;;;;5045464;28;20443;-63
2021/06/03 08:04:19;;;;;;;2.55;2.10;;;19.80;53.70;;;;;;5049825;28;20032;-62
2021/06/03 08:06:45;;;;;;;2.50;2.00;;;19.80;52.90;;;;;;5054860;28;20122;-62
2021/06/03 08:09:11;;;;;;;2.40;1.95;;;19.80;52.60;;;;;;5056740;28;20050;-63
2021/06/03 08:11:37;;;;;;;2.95;1.88;;;19.90;52.70;;;;;;5060614;28;20040;-64
2021/06/03 08:14:03;;;;;;;2.30;1.90;;;19.80;52.70;;;;;;5055972;28;20041;-64
2021/06/03 08:16:28;;;;;;;2.75;2.08;;;19.90;53.00;;;;;;5053839;28;20419;-65
2021/06/03 08:18:56;;;;;;;4.93;2.15;;;19.90;53.40;;;;;;5048130;28;20131;-64
2021/06/03 08:21:22;;;;;;;4.50;2.17;;;19.90;52.80;;;;;;5048458;28;20115;-64
2021/06/03 08:23:48;;;;;;;2.05;1.85;;;19.90;52.10;;;;;;5050416;28;20043;-64
2021/06/03 08:26:13;;;;;;;2.90;2.20;;;19.90;52.00;;;;;;5051543;28;20029;-63
2021/06/03 08:28:39;;;;;;;4.70;2.30;;;19.90;52.00;;;;;;5055781;28;20139;-61
2021/06/03 08:31:05;;;;;;;2.60;2.03;;;19.90;52.50;;;;;;5053825;28;20032;-62
2021/06/03 08:33:31;;;;;;;3.10;1.98;;;20.00;52.60;;;;;;5056132;28;20512;-65
2021/06/03 08:35:57;;;;;;;2.30;2.10;;;20.00;51.90;;;;;;5051309;28;20113;-64
2021/06/03 08:38:23;;;;;;;3.13;1.95;;;20.00;51.90;;;;;;5049270;28;20117;-63
2021/06/03 08:40:56;;;;;;;2.15;1.95;;;19.90;51.90;;;;;;5052655;28;20585;-62
2021/06/03 08:43:26;;;;;;;3.92;2.05;;;19.90;52.10;;;;;;5053791;28;20033;-58
2021/06/03 08:45:54;;;;;;;3.78;2.03;;;19.90;52.40;;;;;;5058070;28;20025;-62
2021/06/03 08:48:19;;;;;;;2.38;1.60;;;19.90;52.10;;;;;;5057067;28;20048;-60
2021/06/03 08:50:48;;;;;;;2.10;1.83;;;19.90;51.80;;;;;;5052668;28;20025;-62
2021/06/03 08:53:15;;;;;;;2.97;2.30;;;20.00;52.20;;;;;;5052661;28;20068;-62
2021/06/03 08:58:28;;;;;;;5.18;2.38;;;20.00;52.10;;;;;;5057347;28;20162;-64
2021/06/03 09:00:55;;;;;;;2.13;1.90;;;20.00;52.00;;;;;;5057839;28;20025;-63
2021/06/03 09:03:23;;;;;;;3.42;2.15;;;20.00;51.50;;;;;;5061458;28;20028;-64
2021/06/03 09:05:49;;;;;;;2.92;1.95;;;20.00;51.40;;;;;;5058792;28;20029;-64
2021/06/03 09:08:26;;;;;;;2.45;2.10;;;20.00;51.30;;;;;;5057367;28;20032;-65
2021/06/03 09:11:01;;;;;;;1.95;1.85;;;20.10;51.50;;;;;;5056801;28;20036;-63
2021/06/03 09:13:31;;;;;;;2.40;1.92;;;20.10;51.80;;;;;;5056249;28;20767;-58
2021/06/03 09:16:02;;;;;;;2.25;1.95;;;20.10;51.60;;;;;;5054071;28;20038;-64
2021/06/03 09:18:31;;;;;;;4.22;2.35;;;20.10;51.20;;;;;;5059708;28;20071;-63
2021/06/03 09:21:19;;;;;;;2.35;2.15;;;20.10;51.40;;;;;;5057632;28;20029;-63
2021/06/03 09:23:55;;;;;;;3.35;2.30;;;20.20;51.20;;;;;;5056249;28;20067;-64
2021/06/03 09:26:22;;;;;;;2.70;2.25;;;20.20;51.30;;;;;;5054231;28;20041;-66
2021/06/03 09:28:49;;;;;;;2.15;1.98;;;20.20;51.30;;;;;;5055414;28;20047;-58
2021/06/03 09:31:18;;;;;;;2.75;2.13;;;20.20;51.30;;;;;;5055492;28;20025;-57
2021/06/03 09:33:59;;;;;;;3.35;2.33;;;20.30;51.50;;;;;;5052219;28;20036;-63
2021/06/03 09:36:29;;;;;;;2.20;2.00;;;20.40;51.90;;;;;;5057011;28;20020;-62
2021/06/03 09:38:58;;;;;;;4.55;2.40;;;20.40;51.80;;;;;;5051431;28;20041;-62
2021/06/03 09:41:26;;;;;;;5.15;2.15;;;20.50;51.80;;;;;;5056045;28;20048;-60
2021/06/03 09:44:10;;;;;;;2.85;2.15;;;20.50;51.30;;;;;;5058973;28;20066;-62
2021/06/03 09:46:44;;;;;;;2.70;2.30;;;20.50;51.30;;;;;;5059067;28;20123;-63
2021/06/03 09:49:23;;;;;;;5.07;2.50;;;20.50;51.60;;;;;;5054921;28;20041;-63
2021/06/03 09:51:51;;;;;;;3.40;2.22;;;20.50;51.60;;;;;;5061640;28;20646;-64
2021/06/03 09:54:21;;;;;;;3.25;1.90;;;20.50;51.20;;;;;;5055253;28;20036;-64
2021/06/03 09:56:50;;;;;;;3.35;2.28;;;20.50;50.80;;;;;;5063185;28;20035;-61
2021/06/03 09:59:22;;;;;;;2.72;2.25;;;20.50;50.90;;;;;;5058677;28;20029;-62
2021/06/03 10:02:00;;;;;;;2.05;1.85;;;20.60;51.50;;;;;;5059572;28;20039;-62
2021/06/03 10:04:33;;;;;;;2.83;2.10;;;20.60;51.00;;;;;;5056939;28;20123;-62
2021/06/03 10:07:00;;;;;;;4.38;1.90;;;20.60;51.70;;;;;;5056898;28;20481;-61
2021/06/03 10:09:42;;;;;;;2.67;2.10;;;20.60;51.70;;;;;;5059044;28;20032;-59
2021/06/03 10:12:11;;;;;;;3.17;2.28;;;20.70;52.50;;;;;;5053615;28;20562;-61
2021/06/03 10:14:37;;;;;;;3.72;1.80;;;20.70;52.40;;;;;;5060530;28;20459;-63
2021/06/03 10:17:28;;;;;;;2.30;2.10;;;20.70;51.90;;;;;;5060477;28;20374;-62
2021/06/03 10:19:57;;;;;;;2.45;2.25;;;20.70;51.50;;;;;;5052113;28;20413;-62
2021/06/03 10:22:27;;;;;;;2.30;2.10;;;20.70;51.50;;;;;;5059192;28;20037;-61
2021/06/03 10:24:52;;;;;;;2.13;2.00;;;20.70;51.60;;;;;;5059218;28;20037;-61
2021/06/03 10:27:20;;;;;;;2.20;1.90;;;20.70;52.00;;;;;;5055663;28;20032;-61
2021/06/03 10:29:49;;;;;;;5.20;2.13;;;20.70;51.60;;;;;;5056027;28;20437;-62
2021/06/03 10:32:22;;;;;;;2.88;2.47;;;20.70;51.70;;;;;;5060037;28;20032;-63
2021/06/03 10:34:48;;;;;;;3.80;2.28;;;20.70;52.10;;;;;;5059750;28;20029;-61
2021/06/03 10:37:15;;;;;;;2.05;1.55;;;20.60;51.60;;;;;;5053922;28;20037;-61
2021/06/03 10:39:42;;;;;;;3.25;2.08;;;20.60;51.70;;;;;;5052027;28;20448;-60
2021/06/03 10:42:11;;;;;;;2.58;1.92;;;20.50;51.50;;;;;;5054078;28;20021;-62
2021/06/03 10:44:38;;;;;;;2.40;2.20;;;20.50;51.60;;;;;;5056437;28;20039;-62
2021/06/03 10:47:05;;;;;;;2.63;2.20;;;20.50;52.20;;;;;;5057480;28;20040;-61
2021/06/03 10:49:33;;;;;;;3.35;2.33;;;20.50;52.40;;;;;;5058927;28;20542;-61
2021/06/03 10:52:07;;;;;;;5.18;2.40;;;20.40;52.30;;;;;;5063582;28;20111;-61
2021/06/03 10:54:42;;;;;;;2.70;2.00;;;20.40;52.50;;;;;;5055709;28;22128;-61
2021/06/03 10:57:08;;;;;;;2.33;1.90;;;20.40;52.30;;;;;;5052153;28;20048;-61
2021/06/03 10:59:36;;;;;;;3.65;2.10;;;20.40;52.90;;;;;;5058331;28;20021;-61
2021/06/03 11:02:07;;;;;;;3.83;2.40;;;20.50;52.40;;;;;;5061460;28;20094;-64
2021/06/03 11:04:34;;;;;;;2.40;2.20;;;20.60;52.60;;;;;;5056673;28;20033;-65
2021/06/03 11:07:01;;;;;;;4.63;2.40;;;20.50;52.80;;;;;;5057232;28;20443;-63
2021/06/03 11:09:33;;;;;;;2.33;2.08;;;20.60;52.60;;;;;;5052649;28;20072;-62
2021/06/03 11:12:14;;;;;;;2.83;2.40;;;20.50;53.30;;;;;;5057286;28;20044;-63
2021/06/03 11:15:16;;;;;;;3.35;2.10;;;20.50;54.10;;;;;;5056960;28;20414;-64
2021/06/03 11:17:57;;;;;;;2.83;1.90;;;20.60;53.50;;;;;;5030193;28;20082;-65
2021/06/03 11:20:36;;;;;;;3.45;2.30;;;20.60;53.00;;;;;;5054255;28;20030;-63
2021/06/03 11:23:30;;;;;;;2.22;2.03;;;20.70;53.20;;;;;;5052135;28;20078;-65
2021/06/03 11:25:56;;;;;;;2.70;2.03;;;20.70;53.00;;;;;;5057215;28;20020;-65
2021/06/03 11:28:22;;;;;;;3.03;2.25;;;20.70;52.90;;;;;;5047490;28;20097;-61
2021/06/03 11:30:52;;;;;;;1.88;1.75;;;20.80;52.90;;;;;;5053661;28;20037;-64
2021/06/03 11:33:18;;;;;;;2.83;2.30;;;20.80;52.60;;;;;;5054667;28;20040;-59
2021/06/03 11:35:43;;;;;;;5.03;2.63;;;20.80;52.40;;;;;;5055114;28;20491;-56
2021/06/03 11:38:09;;;;;;;4.03;2.28;;;20.80;52.70;;;;;;5054087;28;20028;-63
2021/06/03 11:40:42;;;;;;;4.07;2.13;;;20.80;52.30;;;;;;5049482;28;20033;-64
2021/06/03 11:43:11;;;;;;;3.50;2.35;;;20.90;52.50;;;;;;5059621;28;20021;-58
2021/06/03 11:45:40;;;;;;;3.60;2.60;;;20.90;52.80;;;;;;5052477;28;20036;-65
2021/06/03 11:48:18;;;;;;;3.13;2.40;;;20.90;52.60;;;;;;5053890;28;20463;-67
2021/06/03 11:50:50;;;;;;;3.60;2.30;;;20.90;52.90;;;;;;5054626;28;20028;-63
2021/06/03 11:53:19;;;;;;;4.30;2.40;;;20.90;53.30;;;;;;5055087;28;20035;-62
2021/06/03 11:55:57;;;;;;;2.67;2.17;;;20.90;53.10;;;;;;5052310;28;20045;-67
2021/06/03 11:58:44;;;;;;;2.35;2.10;;;21.00;52.70;;;;;;5050276;28;20028;-65
2021/06/03 12:01:13;;;;;;;4.40;2.28;;;21.00;52.60;;;;;;5052801;28;20032;-62
2021/06/03 12:03:39;;;;;;;2.15;1.70;;;21.00;52.40;;;;;;5051640;28;20029;-67
2021/06/03 12:06:15;;;;;;;4.05;2.65;;;21.00;52.60;;;;;;5052911;28;20074;-62
2021/06/03 12:08:49;;;;;;;2.40;2.20;;;21.00;52.70;;;;;;5055046;28;20431;-65
2021/06/03 12:11:22;;;;;;;2.40;2.15;;;21.00;53.20;;;;;;5054690;28;20028;-64
2021/06/03 12:14:15;;;;;;;4.00;2.45;;;21.00;53.90;;;;;;5052940;28;20420;-63
2021/06/03 12:16:42;;;;;;;2.33;2.13;;;21.10;53.60;;;;;;5053722;28;20460;-66
2021/06/03 12:19:16;;;;;;;2.45;2.15;;;21.00;53.90;;;;;;5055055;28;20067;-65
2021/06/03 12:21:46;;;;;;;3.10;2.15;;;21.10;54.20;;;;;;5058732;28;20036;-65
2021/06/03 12:24:12;;;;;;;3.63;2.20;;;21.10;54.30;;;;;;5054899;28;20040;-65
2021/06/03 12:26:40;;;;;;;3.85;2.60;;;21.10;54.30;;;;;;5054204;28;20426;-66
2021/06/03 12:29:22;;;;;;;2.88;2.50;;;21.10;54.20;;;;;;5054428;28;20392;-66
2021/06/03 12:31:48;;;;;;;2.85;2.35;;;21.10;54.50;;;;;;5053946;28;20037;-65
2021/06/03 12:34:27;;;;;;;3.42;2.25;;;21.20;54.40;;;;;;5055006;28;20036;-65
2021/06/03 12:36:53;;;;;;;4.97;2.45;;;21.30;54.50;;;;;;5052491;28;20033;-65
2021/06/03 12:39:19;;;;;;;2.40;2.20;;;21.30;53.90;;;;;;5053280;28;20027;-64
2021/06/03 12:41:46;;;;;;;2.15;1.80;;;21.30;53.90;;;;;;5057607;28;20098;-65
2021/06/03 12:44:16;;;;;;;2.78;2.35;;;21.40;53.30;;;;;;5057938;28;20115;-64
2021/06/03 12:46:45;;;;;;;2.28;2.08;;;21.40;52.60;;;;;;5054062;28;20128;-65
2021/06/03 12:49:15;;;;;;;2.35;2.10;;;21.30;52.10;;;;;;5055894;28;20056;-65
2021/06/03 12:52:06;;;;;;;3.08;2.05;;;21.30;52.00;;;;;;5056805;28;20062;-64
2021/06/03 12:54:44;;;;;;;2.25;1.90;;;21.30;51.30;;;;;;5056674;28;20040;-64
2021/06/03 12:57:15;;;;;;;2.50;2.28;;;21.30;51.40;;;;;;5056659;28;20429;-61
2021/06/03 12:59:43;;;;;;;3.00;1.83;;;21.30;51.70;;;;;;5055294;28;20682;-59
2021/06/03 13:02:11;;;;;;;3.80;2.00;;;21.30;51.70;;;;;;5054584;28;20075;-59